Arcadia, Michigan
Current Conditions -  °F | °C
As of 4:34 PM on Saturday 22 Nov 2014 (Local Time) from KFKS Reporting Station
Haze Haze  
Wind Chill: 35°   Ceiling: 400
Heat Index: 42°   Visibility: 3mi
Dew Point: 41°   Wind: 13mph
Humidity: 95%   Direction: 210°SSW
Pressure: 29.79"   Gusts: 21mph
Location:  44.49°N, 86.23°W
Report Text: KFKS 222134Z AUTO 21011G18KT 3SM BR OVC004 06/05 A2979 RMK AO2 T00550048
Loading
Personal Weather Stations






























Interactive Weather Map New forecast layout! Learn more

10-Day Weather Forecast

Advertisements
Track Severe Weather on mobile